sensor_id;sensor_type;location;lat;lon;timestamp;pressure;altitude;pressure_sealevel;temperature;humidity
74973;BME280;63529;56.320;43.990;2023-04-06T00:00:33;100291.19;;;6.51;57.54
74973;BME280;63529;56.320;43.990;2023-04-06T00:02:59;100287.13;;;6.48;57.85
74973;BME280;63529;56.320;43.990;2023-04-06T00:05:25;100294.72;;;6.45;57.55
74973;BME280;63529;56.320;43.990;2023-04-06T00:07:53;100291.50;;;6.43;57.97
74973;BME280;63529;56.320;43.990;2023-04-06T00:10:21;100301.28;;;6.42;57.75
74973;BME280;63529;56.320;43.990;2023-04-06T00:12:47;100298.25;;;6.39;58.00
74973;BME280;63529;56.320;43.990;2023-04-06T00:15:13;100297.09;;;6.35;58.00
74973;BME280;63529;56.320;43.990;2023-04-06T00:17:39;100298.34;;;6.32;58.04
74973;BME280;63529;56.320;43.990;2023-04-06T00:20:05;100301.22;;;6.31;57.87
74973;BME280;63529;56.320;43.990;2023-04-06T00:22:32;100301.44;;;6.29;57.75
74973;BME280;63529;56.320;43.990;2023-04-06T00:24:58;100308.03;;;6.27;58.14
74973;BME280;63529;56.320;43.990;2023-04-06T00:27:24;100309.47;;;6.22;57.94
74973;BME280;63529;56.320;43.990;2023-04-06T00:29:50;100310.75;;;6.20;58.15
74973;BME280;63529;56.320;43.990;2023-04-06T00:32:15;100308.28;;;6.18;58.08
74973;BME280;63529;56.320;43.990;2023-04-06T00:34:41;100301.84;;;6.14;58.16
74973;BME280;63529;56.320;43.990;2023-04-06T00:37:07;100305.72;;;6.12;58.27
74973;BME280;63529;56.320;43.990;2023-04-06T00:39:33;100313.09;;;6.10;58.02
74973;BME280;63529;56.320;43.990;2023-04-06T00:41:59;100307.19;;;6.08;58.45
74973;BME280;63529;56.320;43.990;2023-04-06T00:44:26;100318.84;;;6.07;58.42
74973;BME280;63529;56.320;43.990;2023-04-06T00:46:52;100316.84;;;6.02;58.24
74973;BME280;63529;56.320;43.990;2023-04-06T00:49:18;100318.28;;;5.98;58.30
74973;BME280;63529;56.320;43.990;2023-04-06T00:51:44;100323.25;;;5.94;58.50
74973;BME280;63529;56.320;43.990;2023-04-06T00:54:10;100329.78;;;5.92;58.63
74973;BME280;63529;56.320;43.990;2023-04-06T00:56:36;100322.84;;;5.91;58.88
74973;BME280;63529;56.320;43.990;2023-04-06T00:59:02;100327.53;;;5.89;58.55
74973;BME280;63529;56.320;43.990;2023-04-06T01:01:29;100324.50;;;5.85;58.93
74973;BME280;63529;56.320;43.990;2023-04-06T01:04:02;100329.44;;;5.82;59.00
74973;BME280;63529;56.320;43.990;2023-04-06T01:06:31;100333.31;;;5.79;58.74
74973;BME280;63529;56.320;43.990;2023-04-06T01:09:00;100327.66;;;5.76;58.96
74973;BME280;63529;56.320;43.990;2023-04-06T01:11:27;100326.25;;;5.73;59.04
74973;BME280;63529;56.320;43.990;2023-04-06T01:13:53;100328.53;;;5.69;59.11
74973;BME280;63529;56.320;43.990;2023-04-06T01:16:31;100329.56;;;5.68;59.13
74973;BME280;63529;56.320;43.990;2023-04-06T01:19:10;100328.38;;;5.64;59.19
74973;BME280;63529;56.320;43.990;2023-04-06T01:21:40;100329.63;;;5.62;59.44
74973;BME280;63529;56.320;43.990;2023-04-06T01:24:30;100324.75;;;5.59;59.28
74973;BME280;63529;56.320;43.990;2023-04-06T01:27:18;100332.91;;;5.57;59.71
74973;BME280;63529;56.320;43.990;2023-04-06T01:30:07;100332.53;;;5.54;59.55
74973;BME280;63529;56.320;43.990;2023-04-06T01:32:52;100332.97;;;5.51;59.47
74973;BME280;63529;56.320;43.990;2023-04-06T01:35:32;100328.94;;;5.48;59.60
74973;BME280;63529;56.320;43.990;2023-04-06T01:38:09;100334.63;;;5.45;59.62
74973;BME280;63529;56.320;43.990;2023-04-06T01:40:36;100334.06;;;5.43;59.76
74973;BME280;63529;56.320;43.990;2023-04-06T01:43:02;100330.19;;;5.39;59.89
74973;BME280;63529;56.320;43.990;2023-04-06T01:45:37;100338.59;;;5.36;59.79
74973;BME280;63529;56.320;43.990;2023-04-06T01:48:12;100344.28;;;5.33;59.95
74973;BME280;63529;56.320;43.990;2023-04-06T01:50:38;100345.53;;;5.30;60.13
74973;BME280;63529;56.320;43.990;2023-04-06T01:53:06;100343.31;;;5.27;60.10
74973;BME280;63529;56.320;43.990;2023-04-06T01:55:33;100345.59;;;5.24;60.42
74973;BME280;63529;56.320;43.990;2023-04-06T01:58:20;100336.44;;;5.20;60.22
74973;BME280;63529;56.320;43.990;2023-04-06T02:00:46;100351.75;;;5.17;60.43
74973;BME280;63529;56.320;43.990;2023-04-06T02:03:12;100356.44;;;5.15;60.18
74973;BME280;63529;56.320;43.990;2023-04-06T02:05:40;100355.81;;;5.13;60.37
74973;BME280;63529;56.320;43.990;2023-04-06T02:08:17;100361.34;;;5.12;60.40
74973;BME280;63529;56.320;43.990;2023-04-06T02:10:43;100358.91;;;5.10;60.55
74973;BME280;63529;56.320;43.990;2023-04-06T02:13:18;100364.59;;;5.07;60.75
74973;BME280;63529;56.320;43.990;2023-04-06T02:15:49;100372.53;;;5.07;60.76
74973;BME280;63529;56.320;43.990;2023-04-06T02:18:15;100373.78;;;5.05;60.76
74973;BME280;63529;56.320;43.990;2023-04-06T02:20:43;100378.28;;;5.04;60.72
74973;BME280;63529;56.320;43.990;2023-04-06T02:23:09;100378.28;;;5.04;61.04
74973;BME280;63529;56.320;43.990;2023-04-06T02:25:35;100379.91;;;5.05;60.84
74973;BME280;63529;56.320;43.990;2023-04-06T02:28:02;100380.13;;;5.04;60.97
74973;BME280;63529;56.320;43.990;2023-04-06T02:30:28;100378.88;;;5.06;61.05
74973;BME280;63529;56.320;43.990;2023-04-06T02:32:55;100388.00;;;5.10;60.85
74973;BME280;63529;56.320;43.990;2023-04-06T02:35:22;100394.47;;;5.14;61.03
74973;BME280;63529;56.320;43.990;2023-04-06T02:37:52;100387.34;;;5.22;61.08
74973;BME280;63529;56.320;43.990;2023-04-06T02:40:19;100381.34;;;5.33;60.79
74973;BME280;63529;56.320;43.990;2023-04-06T02:42:45;100394.72;;;5.44;60.35
74973;BME280;63529;56.320;43.990;2023-04-06T02:45:12;100398.53;;;5.55;60.10
74973;BME280;63529;56.320;43.990;2023-04-06T02:47:42;100398.03;;;5.65;60.32
74973;BME280;63529;56.320;43.990;2023-04-06T02:50:10;100400.41;;;5.73;59.87
74973;BME280;63529;56.320;43.990;2023-04-06T02:52:43;100402.00;;;5.81;59.57
74973;BME280;63529;56.320;43.990;2023-04-06T02:55:10;100404.78;;;5.86;59.57
74973;BME280;63529;56.320;43.990;2023-04-06T02:57:36;100405.97;;;5.90;59.21
74973;BME280;63529;56.320;43.990;2023-04-06T03:00:02;100401.09;;;5.93;59.11
74973;BME280;63529;56.320;43.990;2023-04-06T03:02:36;100410.63;;;6.01;59.33
74973;BME280;63529;56.320;43.990;2023-04-06T03:05:16;100407.47;;;6.11;58.95
74973;BME280;63529;56.320;43.990;2023-04-06T03:07:44;100411.59;;;6.25;58.72
74973;BME280;63529;56.320;43.990;2023-04-06T03:10:22;100413.31;;;6.38;58.23
74973;BME280;63529;56.320;43.990;2023-04-06T03:12:48;100414.03;;;6.45;57.93
74973;BME280;63529;56.320;43.990;2023-04-06T03:15:18;100415.25;;;6.49;57.99
74973;BME280;63529;56.320;43.990;2023-04-06T03:17:49;100418.34;;;6.46;57.67
74973;BME280;63529;56.320;43.990;2023-04-06T03:20:31;100422.69;;;6.40;57.41
74973;BME280;63529;56.320;43.990;2023-04-06T03:22:58;100420.22;;;6.39;58.01
74973;BME280;63529;56.320;43.990;2023-04-06T03:25:27;100418.25;;;6.34;57.83
74973;BME280;63529;56.320;43.990;2023-04-06T03:27:58;100420.09;;;6.34;57.79
74973;BME280;63529;56.320;43.990;2023-04-06T03:30:25;100418.47;;;6.33;57.78
74973;BME280;63529;56.320;43.990;2023-04-06T03:32:52;100421.56;;;6.30;58.05
74973;BME280;63529;56.320;43.990;2023-04-06T03:35:19;100421.94;;;6.33;58.03
74973;BME280;63529;56.320;43.990;2023-04-06T03:37:45;100430.91;;;6.32;57.78
74973;BME280;63529;56.320;43.990;2023-04-06T03:40:11;100428.06;;;6.34;57.89
74973;BME280;63529;56.320;43.990;2023-04-06T03:42:38;100431.28;;;6.36;57.77
74973;BME280;63529;56.320;43.990;2023-04-06T03:45:09;100427.59;;;6.37;57.53
74973;BME280;63529;56.320;43.990;2023-04-06T03:47:42;100427.97;;;6.40;57.35
74973;BME280;63529;56.320;43.990;2023-04-06T03:50:08;100438.53;;;6.47;57.47
74973;BME280;63529;56.320;43.990;2023-04-06T03:52:35;100430.09;;;6.50;57.02
74973;BME280;63529;56.320;43.990;2023-04-06T03:55:02;100428.41;;;6.56;56.94
74973;BME280;63529;56.320;43.990;2023-04-06T03:57:28;100432.84;;;6.62;56.93
74973;BME280;63529;56.320;43.990;2023-04-06T03:59:57;100431.16;;;6.67;57.01
74973;BME280;63529;56.320;43.990;2023-04-06T04:02:25;100441.47;;;6.75;56.61
74973;BME280;63529;56.320;43.990;2023-04-06T04:04:51;100437.94;;;6.82;56.52
74973;BME280;63529;56.320;43.990;2023-04-06T04:07:17;100442.94;;;6.90;56.12
74973;BME280;63529;56.320;43.990;2023-04-06T04:09:43;100441.00;;;6.97;55.82
74973;BME280;63529;56.320;43.990;2023-04-06T04:12:10;100448.44;;;7.06;55.54
74973;BME280;63529;56.320;43.990;2023-04-06T04:14:36;100447.00;;;7.22;55.42
74973;BME280;63529;56.320;43.990;2023-04-06T04:17:02;100446.88;;;7.47;55.04
74973;BME280;63529;56.320;43.990;2023-04-06T04:19:28;100443.72;;;8.86;53.79
74973;BME280;63529;56.320;43.990;2023-04-06T04:21:55;100446.03;;;11.99;48.44
74973;BME280;63529;56.320;43.990;2023-04-06T04:24:29;100446.44;;;15.30;41.48
74973;BME280;63529;56.320;43.990;2023-04-06T04:26:55;100439.84;;;17.90;37.04
74973;BME280;63529;56.320;43.990;2023-04-06T04:29:22;100441.56;;;19.96;33.51
74973;BME280;63529;56.320;43.990;2023-04-06T04:31:50;100451.66;;;21.50;31.07
74973;BME280;63529;56.320;43.990;2023-04-06T04:34:18;100454.13;;;22.71;29.37
74973;BME280;63529;56.320;43.990;2023-04-06T04:36:51;100443.38;;;23.88;28.13
74973;BME280;63529;56.320;43.990;2023-04-06T04:39:25;100444.66;;;24.72;26.76
74973;BME280;63529;56.320;43.990;2023-04-06T04:41:59;100444.31;;;25.51;25.38
74973;BME280;63529;56.320;43.990;2023-04-06T04:44:26;100455.75;;;26.12;24.58
74973;BME280;63529;56.320;43.990;2023-04-06T04:46:53;100455.53;;;26.65;23.95
74973;BME280;63529;56.320;43.990;2023-04-06T04:49:23;100452.09;;;27.19;23.41
74973;BME280;63529;56.320;43.990;2023-04-06T04:51:51;100449.94;;;27.67;22.94
74973;BME280;63529;56.320;43.990;2023-04-06T04:54:32;100455.34;;;28.25;22.46
74973;BME280;63529;56.320;43.990;2023-04-06T04:56:58;100460.19;;;28.81;21.86
74973;BME280;63529;56.320;43.990;2023-04-06T04:59:37;100462.69;;;29.46;21.41
74973;BME280;63529;56.320;43.990;2023-04-06T05:02:11;100471.06;;;29.87;20.68
74973;BME280;63529;56.320;43.990;2023-04-06T05:04:47;100459.63;;;30.22;20.07
74973;BME280;63529;56.320;43.990;2023-04-06T05:07:18;100471.31;;;30.56;19.72
74973;BME280;63529;56.320;43.990;2023-04-06T05:09:46;100472.03;;;30.97;19.63
74973;BME280;63529;56.320;43.990;2023-04-06T05:12:13;100479.75;;;31.36;19.05
74973;BME280;63529;56.320;43.990;2023-04-06T05:14:49;100479.56;;;31.91;18.64
74973;BME280;63529;56.320;43.990;2023-04-06T05:17:17;100469.78;;;32.33;18.14
74973;BME280;63529;56.320;43.990;2023-04-06T05:19:43;100473.34;;;32.69;17.73
74973;BME280;63529;56.320;43.990;2023-04-06T05:22:11;100476.03;;;33.05;17.90
74973;BME280;63529;56.320;43.990;2023-04-06T05:24:42;100484.63;;;33.50;17.50
74973;BME280;63529;56.320;43.990;2023-04-06T05:27:07;100490.41;;;33.91;17.42
74973;BME280;63529;56.320;43.990;2023-04-06T05:29:33;100485.75;;;34.33;16.60
74973;BME280;63529;56.320;43.990;2023-04-06T05:32:01;100481.44;;;34.73;16.16
74973;BME280;63529;56.320;43.990;2023-04-06T05:34:27;100483.69;;;34.89;15.97
74973;BME280;63529;56.320;43.990;2023-04-06T05:36:53;100485.81;;;35.15;15.82
74973;BME280;63529;56.320;43.990;2023-04-06T05:39:23;100486.59;;;35.50;15.64
74973;BME280;63529;56.320;43.990;2023-04-06T05:41:50;100501.53;;;35.94;15.43
74973;BME280;63529;56.320;43.990;2023-04-06T05:44:25;100491.63;;;36.16;15.07
74973;BME280;63529;56.320;43.990;2023-04-06T05:47:01;100499.25;;;36.39;15.01
74973;BME280;63529;56.320;43.990;2023-04-06T05:49:27;100500.34;;;36.68;14.73
74973;BME280;63529;56.320;43.990;2023-04-06T05:51:53;100495.28;;;36.87;14.32
74973;BME280;63529;56.320;43.990;2023-04-06T05:54:19;100486.06;;;37.10;14.31
74973;BME280;63529;56.320;43.990;2023-04-06T05:56:46;100493.13;;;37.38;14.08
74973;BME280;63529;56.320;43.990;2023-04-06T05:59:12;100497.44;;;37.59;14.07
74973;BME280;63529;56.320;43.990;2023-04-06T06:01:39;100495.34;;;37.83;13.86
74973;BME280;63529;56.320;43.990;2023-04-06T06:04:05;100489.19;;;38.08;13.39
74973;BME280;63529;56.320;43.990;2023-04-06T06:06:34;100506.06;;;38.37;13.28
74973;BME280;63529;56.320;43.990;2023-04-06T06:09:23;100499.84;;;38.62;13.39
74973;BME280;63529;56.320;43.990;2023-04-06T06:11:59;100501.81;;;38.94;13.37
74973;BME280;63529;56.320;43.990;2023-04-06T06:14:28;100502.72;;;39.20;13.14
74973;BME280;63529;56.320;43.990;2023-04-06T06:16:57;100508.91;;;39.40;12.72
74973;BME280;63529;56.320;43.990;2023-04-06T06:19:23;100511.56;;;39.73;12.82
74973;BME280;63529;56.320;43.990;2023-04-06T06:21:51;100513.63;;;40.10;12.14
74973;BME280;63529;56.320;43.990;2023-04-06T06:24:17;100509.94;;;40.61;12.26
74973;BME280;63529;56.320;43.990;2023-04-06T06:26:43;100520.31;;;41.08;11.81
74973;BME280;63529;56.320;43.990;2023-04-06T06:29:11;100511.28;;;41.26;11.66
74973;BME280;63529;56.320;43.990;2023-04-06T06:31:38;100506.75;;;41.41;11.82
74973;BME280;63529;56.320;43.990;2023-04-06T06:34:04;100504.13;;;41.78;11.46
74973;BME280;63529;56.320;43.990;2023-04-06T06:36:32;100508.63;;;42.06;11.13
74973;BME280;63529;56.320;43.990;2023-04-06T06:38:59;100503.41;;;42.45;11.12
74973;BME280;63529;56.320;43.990;2023-04-06T06:41:26;100507.38;;;42.75;10.92
74973;BME280;63529;56.320;43.990;2023-04-06T06:43:53;100504.75;;;42.99;10.67
74973;BME280;63529;56.320;43.990;2023-04-06T06:46:20;100501.59;;;43.24;10.48
74973;BME280;63529;56.320;43.990;2023-04-06T06:48:46;100509.41;;;43.39;10.66
74973;BME280;63529;56.320;43.990;2023-04-06T06:51:12;100516.25;;;43.47;10.25
74973;BME280;63529;56.320;43.990;2023-04-06T06:53:39;100518.69;;;43.63;10.35
